Date,TemperatureHighF,TemperatureAvgF,TemperatureLowF,DewpointHighF,DewpointAvgF,DewpointLowF,HumidityHigh,HumidityAvg,HumidityLow,PressureMaxIn,PressureMinIn,WindSpeedMaxMPH,WindSpeedAvgMPH,GustSpeedMaxMPH,PrecipitationSumIn
2013-2-1,20.4,8.7,0.1,17.0,2.3,-5.0,87,75,68,30.50,30.24,12,5,20,0.00
2013-2-2,26.9,20.7,15.8,23.0,15.7,10.0,89,81,69,30.22,30.09,11,4,17,0.00
2013-2-3,27.5,22.5,17.2,20.0,16.8,14.0,92,79,66,30.17,30.02,14,5,22,0.00
2013-2-4,32.7,25.5,16.2,27.0,20.4,13.0,88,81,73,30.04,29.84,9,3,15,0.00
2013-2-5,37.2,29.0,16.4,31.0,24.4,13.0,87,83,77,30.15,29.88,15,4,20,0.00
2013-2-6,44.1,34.6,23.8,34.0,29.0,21.0,89,80,68,30.24,30.07,9,3,18,0.00
2013-2-7,37.0,35.5,32.1,36.0,33.4,30.0,95,92,83,30.09,29.89,9,3,15,0.66
2013-2-8,32.0,28.1,25.9,30.0,24.4,22.0,91,85,82,30.42,30.09,10,3,16,0.00
2013-2-9,35.9,30.6,25.8,32.0,26.6,23.0,88,85,79,30.43,30.06,15,6,19,0.01
2013-2-10,48.9,41.6,35.4,46.0,38.2,31.0,94,88,68,30.07,29.47,18,9,28,0.39
2013-2-11,39.0,32.8,30.0,32.0,25.8,24.0,80,75,71,30.13,29.60,21,10,30,0.00
2013-2-12,37.9,31.5,27.1,28.0,25.1,22.0,84,78,66,30.17,29.95,12,3,14,0.00
2013-2-13,45.1,36.2,28.2,35.0,29.8,25.0,86,78,66,29.96,29.76,8,4,16,0.00
2013-2-14,40.6,37.0,32.0,33.0,31.2,28.0,91,79,68,30.06,29.71,13,5,21,0.00
2013-2-15,33.7,26.7,19.4,28.0,17.0,12.0,86,68,46,30.28,30.06,15,6,17,0.00
2013-2-16,27.4,19.3,13.0,15.0,11.1,7.0,81,71,57,30.28,30.20,14,4,16,0.00
2013-2-17,36.2,25.6,13.3,25.0,16.1,8.0,79,68,53,30.26,29.93,14,6,20,0.00
2013-2-18,53.1,40.6,31.8,45.0,33.6,25.0,93,77,62,29.93,29.49,17,8,21,0.45
2013-2-19,21.3,17.1,9.0,15.0,11.1,4.0,82,77,74,30.35,30.08,16,8,20,0.00
2013-2-20,20.6,11.7,3.6,14.0,6.3,-1.0,85,79,71,30.50,30.35,6,2,12,0.04
2013-2-21,29.8,21.9,10.7,25.0,18.0,7.0,92,85,79,30.44,29.94,19,7,28,0.00
2013-2-22,32.7,28.4,24.9,31.0,25.4,20.0,94,88,81,30.01,29.82,14,6,21,0.05
2013-2-23,29.8,25.1,21.5,22.0,19.3,17.0,83,79,72,30.05,30.00,10,4,13,0.02
2013-2-24,38.4,27.8,15.9,27.0,21.1,12.0,89,77,62,30.18,30.04,5,2,9,0.02
2013-2-25,40.5,32.9,24.1,33.0,28.2,22.0,91,83,73,30.17,29.92,13,4,22,0.00
2013-2-26,34.4,34.2,34.0,30.0,29.6,29.0,84,83,81,29.91,29.72,22,12,28,0.00
2013-2-27,32.7,32.4,32.1,31.0,30.7,30.0,94,93,93,29.77,29.71,10,6,13,0.20
2013-2-28,35.7,32.6,30.4,32.0,30.6,29.0,94,92,86,30.13,29.86,9,3,16,0.03